Flight Track Log - Related Links

Times and Time Zones

All times are in EDT time to prevent confusion due to time zone crossing. See the KAP17 flight status page for this flight to view local times or setup timezone preferences in your user account.

Time Position Orientation Groundspeed Altitude Reporting Facility
EDT Latitude Longitude Course Direction KTS MPH feet Rate Location/Type
Wed 06:27:00 AM 43.5981 -72.0981 144° Southeast  Level FlightAware Approximate
Wed 06:28:03 AM 43.6733 -72.1961 144° Southeast 155 178 3,200  Level Boston Center
Wed 06:29:03 AM 43.6483 -72.1733 147° Southeast 155 178 4,100 750 Climbing Boston Center
Wed 06:30:03 AM 43.6233 -72.1361 133° Southeast 150 173 4,700 550 Climbing Boston Center
Wed 06:31:03 AM 43.5983 -72.1019 135° Southeast 137 158 5,200 500 Climbing Boston Center
Wed 06:32:03 AM 43.5753 -72.0675 133° Southeast 132 152 5,700 550 Climbing Boston Center
Wed 06:33:03 AM 43.5522 -72.0333 133° Southeast 126 145 6,300 500 Climbing Boston Center
Wed 06:34:03 AM 43.5269 -72.0019 138° Southeast 121 139 6,700 300 Climbing Boston Center
Wed 06:35:03 AM 43.4997 -71.9622 133° Southeast 126 145 6,900 100 Climbing Boston Center
Wed 06:36:03 AM 43.4725 -71.9222 133° Southeast 131 151 6,900  Level Boston Center
Wed 06:37:03 AM 43.4411 -71.8797 135° Southeast 146 168 6,900  Level Boston Center
Wed 06:38:15 AM 43.4011 -71.8342 140° Southeast 146 168 6,900  Level Boston Center
Wed 06:39:15 AM 43.3697 -71.7975 140° Southeast 146 168 6,900 -100 Level Boston Center
Wed 06:40:15 AM 43.3383 -71.7636 142° Southeast 146 168 6,700 -350 Descending Boston Center
Wed 06:41:15 AM 43.3025 -71.7211 139° Southeast 152 175 6,200 -400 Descending Boston Center
Wed 06:42:15 AM 43.2647 -71.6817 143° Southeast 159 183 5,900 -150 Descending Boston Center
Wed 06:43:15 AM 43.2311 -71.6422 139° Southeast 164 189 5,900  Level Boston Center
Wed 06:44:15 AM 43.1997 -71.6083 142° Southeast 158 182 5,900  Level Boston Center
Wed 06:45:15 AM 43.1661 -71.5689 139° Southeast 158 182 5,900  Level Boston Center
Wed 06:46:14 AM 43.1333 -71.5333 142° Southeast 150 173 5,900  Level KA90
Wed 06:47:20 AM 43.1000 -71.5000 144° Southeast 148 170 5,900 -47 Level KA90
Wed 06:48:21 AM 43.0667 -71.4500 132° Southeast 150 173 5,800 -52 Descending KA90
Wed 06:49:16 AM 43.0333 -71.4167 144° Southeast 152 175 5,800  Level KA90
Wed 06:50:14 AM 43.0000 -71.3833 144° Southeast 151 174 5,800  Level KA90
Wed 06:51:20 AM 42.9667 -71.3500 144° Southeast 150 173 5,800  Level KA90
Wed 06:52:21 AM 42.9333 -71.3167 144° Southeast 147 169 5,800  Level KA90
Wed 06:53:21 AM 42.9000 -71.2833 144° Southeast 149 171 5,800  Level KA90
Wed 06:54:16 AM 42.8833 -71.2500 124° Southeast 150 173 5,800 50 Level KA90
Wed 06:55:20 AM 42.8333 -71.2167 154° Southeast 152 175 5,900 50 Climbing KA90
Wed 06:56:15 AM 42.8000 -71.2000 160° South 148 170 5,900 -209 Level KA90
Wed 06:57:15 AM 42.7667 -71.1833 160° South 154 177 5,500 -446 Descending KA90
Wed 06:58:16 AM 42.7167 -71.1667 166° South 168 193 5,000 -303 Descending KA90
Wed 06:59:14 AM 42.6667 -71.1500 166° South 166 191 4,900 -51 Descending KA90
Wed 07:00:14 AM 42.6333 -71.1167 144° Southeast 156 180 4,900  Level KA90
Wed 07:01:09 AM 42.6000 -71.1000 160° South 151 174 4,900  Level KA90
Wed 07:02:17 AM 42.5500 -71.0833 166° South 149 171 4,900 -48 Level KA90
Wed 07:03:14 AM 42.5167 -71.0667 160° South 152 175 4,800 -339 Descending KA90
Wed 07:04:21 AM 42.4667 -71.0833 194° South 170 196 4,200 -422 Descending KA90
Wed 07:05:22 AM 42.4167 -71.0833 180° South 166 191 3,900 -148 Descending KA90
Wed 07:06:23 AM 42.3833 -71.1000 200° South 153 176 3,900  Level KA90
Wed 07:07:26 AM 42.3333 -71.1167 194° South 147 169 3,900  Level KA90
Wed 07:08:26 AM 42.3000 -71.1333 200° South 144 166 3,900 -149 Level KA90
Wed 07:09:27 AM 42.2500 -71.1500 194° South 148 170 3,600 -365 Descending KA90
Wed 07:10:21 AM 42.2167 -71.1667 200° South 164 189 3,200 -365 Descending KA90
Wed 07:11:22 AM 42.1833 -71.1333 143° Southeast 166 191 2,900 -159 Descending KA90
Wed 07:12:14 AM 42.1833 -71.0833 90° East 157 181 2,900 -353 Level KA90
Wed 07:13:21 AM 42.2333 -71.0667 14° North 195 224 2,200 -656 Descending KA90
Wed 07:14:22 AM 42.2833 -71.0500 14° North 181 208 1,500 -797 Descending KA90
Wed 07:15:29 AM 42.3333 -71.0167 26° Northeast 154 177 500 -896 Descending KA90
Wed 07:17:00 AM 42.3500 -71.0000 63° Northeast  Level FlightAware Approximate
Wed 07:24:00 AM 42.3630 -71.0064 63° Northeast  Level Estimated
Wed 07:25:00 AM 42.3630 -71.0064 63° Northeast  Level Estimated

Login

Don't have an account? Register now (free) for customized features, flight alerts, and more!